Time;durP1;ratioP1;P1;durP2;ratioP2;P2;SDS_P1;SDS_P2;PMS_P1;PMS_P2;Temp;Humidity;BMP_temperature;BMP_pressure;BME280_temperature;BME280_humidity;BME280_pressure;Samples;Min_cycle;Max_cycle;Signal;HPM_P1;HPM_P2
2022/09/07 00:00:42;;;;;;;11.33;10.23;;;18.10;99.90;;;;;;4992154;28;20186;-69
2022/09/07 00:03:08;;;;;;;11.60;10.60;;;18.00;99.90;;;;;;4992405;28;20171;-69
2022/09/07 00:05:44;;;;;;;12.43;11.30;;;18.10;99.90;;;;;;4992571;28;20255;-69
2022/09/07 00:08:10;;;;;;;10.87;9.83;;;18.10;99.90;;;;;;4992451;28;20175;-68
2022/09/07 00:10:36;;;;;;;11.73;10.63;;;18.10;99.90;;;;;;4992221;28;20278;-68
2022/09/07 00:13:02;;;;;;;10.53;9.60;;;18.00;99.90;;;;;;4992012;28;20203;-69
2022/09/07 00:15:28;;;;;;;12.80;11.00;;;18.00;99.90;;;;;;4991745;28;20227;-68
2022/09/07 00:17:53;;;;;;;14.37;12.17;;;18.10;99.90;;;;;;4992207;28;20566;-69
2022/09/07 00:20:19;;;;;;;11.43;10.30;;;18.10;99.90;;;;;;4992175;28;20205;-68
2022/09/07 00:22:45;;;;;;;9.80;9.00;;;18.10;99.90;;;;;;4990980;28;20596;-69
2022/09/07 00:25:11;;;;;;;10.60;9.60;;;18.10;99.90;;;;;;4992123;28;20167;-68
2022/09/07 00:27:37;;;;;;;10.07;9.07;;;18.10;99.90;;;;;;4991923;28;20179;-68
2022/09/07 00:30:04;;;;;;;10.57;9.57;;;18.20;99.90;;;;;;4991996;28;20175;-69
2022/09/07 00:32:29;;;;;;;10.27;9.43;;;18.30;99.90;;;;;;4991930;28;20258;-68
2022/09/07 00:34:55;;;;;;;10.57;9.67;;;18.40;99.90;;;;;;4991972;28;20202;-69
2022/09/07 00:37:20;;;;;;;11.00;10.00;;;18.50;99.90;;;;;;4992078;28;20544;-69
2022/09/07 00:39:46;;;;;;;10.70;9.80;;;18.60;99.90;;;;;;4991371;28;20167;-69
2022/09/07 00:42:12;;;;;;;10.90;9.90;;;18.60;99.90;;;;;;4992010;28;20282;-69
2022/09/07 00:45:02;;;;;;;11.77;10.57;;;18.60;99.90;;;;;;4991926;28;20229;-68
2022/09/07 00:47:55;;;;;;;10.67;9.67;;;18.60;99.90;;;;;;4991767;28;20179;-68
2022/09/07 00:50:33;;;;;;;9.60;8.80;;;18.60;99.90;;;;;;4991826;28;20225;-68
2022/09/07 00:53:10;;;;;;;11.07;8.97;;;18.40;99.90;;;;;;4991415;28;20167;-68
2022/09/07 00:55:38;;;;;;;9.70;8.83;;;18.30;99.90;;;;;;4991295;28;20175;-68
2022/09/07 00:58:04;;;;;;;10.13;9.13;;;18.40;99.90;;;;;;5022999;28;20175;-68
2022/09/07 01:00:30;;;;;;;10.30;9.30;;;18.50;99.90;;;;;;4991740;28;20237;-68
2022/09/07 01:02:57;;;;;;;11.67;9.43;;;18.40;99.90;;;;;;4991658;28;20203;-68
2022/09/07 01:05:35;;;;;;;11.63;10.53;;;18.40;99.90;;;;;;4991485;28;20185;-68
2022/09/07 01:08:02;;;;;;;10.90;9.90;;;18.60;99.90;;;;;;4991563;28;20191;-68
2022/09/07 01:10:32;;;;;;;9.47;8.63;;;18.70;99.90;;;;;;4991171;28;20203;-68
2022/09/07 01:13:01;;;;;;;11.13;9.77;;;18.80;99.90;;;;;;4991451;28;20164;-68
2022/09/07 01:15:57;;;;;;;10.63;9.70;;;18.80;99.90;;;;;;4991212;28;20238;-68
2022/09/07 01:18:34;;;;;;;11.00;9.90;;;19.00;99.90;;;;;;4991560;28;20183;-68
2022/09/07 01:21:22;;;;;;;10.80;9.70;;;18.90;99.90;;;;;;4991235;28;20174;-68
2022/09/07 01:24:15;;;;;;;11.40;9.97;;;18.70;99.90;;;;;;4991184;28;20187;-68
2022/09/07 01:26:59;;;;;;;11.70;10.50;;;18.50;99.90;;;;;;4991284;28;20183;-68
2022/09/07 01:30:05;;;;;;;11.47;10.20;;;18.30;99.90;;;;;;4991070;28;20183;-68
2022/09/07 01:32:46;;;;;;;11.40;10.40;;;18.40;99.90;;;;;;4991082;28;20182;-68
2022/09/07 01:35:38;;;;;;;13.77;12.10;;;18.40;99.90;;;;;;4991257;28;20178;-68
2022/09/07 01:38:22;;;;;;;13.07;11.73;;;18.30;99.90;;;;;;4990745;28;20210;-68
2022/09/07 01:40:58;;;;;;;13.33;12.10;;;18.30;99.90;;;;;;4990929;28;20199;-68
2022/09/07 01:43:53;;;;;;;13.23;11.93;;;18.20;99.90;;;;;;4991209;28;20171;-68
2022/09/07 01:46:25;;;;;;;15.03;13.50;;;18.30;99.90;;;;;;4991132;28;20167;-67
2022/09/07 01:48:53;;;;;;;14.83;13.33;;;18.30;99.90;;;;;;4990922;28;20269;-68
2022/09/07 01:51:21;;;;;;;14.87;13.43;;;18.40;99.90;;;;;;4991815;28;20172;-69
2022/09/07 01:53:57;;;;;;;14.80;13.40;;;18.40;99.90;;;;;;4994210;28;20205;-69
2022/09/07 01:56:29;;;;;;;15.53;14.07;;;18.40;99.90;;;;;;4994522;28;20163;-69
2022/09/07 01:59:03;;;;;;;15.13;13.57;;;18.40;99.90;;;;;;4994315;28;20638;-69
2022/09/07 02:01:45;;;;;;;15.30;13.90;;;18.50;99.90;;;;;;4994306;28;20245;-69
2022/09/07 02:04:22;;;;;;;15.97;14.50;;;18.50;99.90;;;;;;4994488;28;20172;-69
2022/09/07 02:06:59;;;;;;;15.20;13.80;;;18.60;99.90;;;;;;4994067;28;20526;-69
2022/09/07 02:09:36;;;;;;;14.47;13.07;;;18.50;99.90;;;;;;4994249;28;20199;-68
2022/09/07 02:12:11;;;;;;;15.87;14.37;;;18.30;99.90;;;;;;4994157;28;20175;-68
2022/09/07 02:14:40;;;;;;;15.87;14.47;;;18.20;99.90;;;;;;4992802;28;20222;-69
2022/09/07 02:17:32;;;;;;;16.60;14.90;;;18.20;99.90;;;;;;4994202;28;20180;-69
2022/09/07 02:20:12;;;;;;;15.93;14.43;;;18.20;99.90;;;;;;4992802;28;20297;-69
2022/09/07 02:22:42;;;;;;;16.73;14.70;;;18.10;99.90;;;;;;4993704;28;20226;-68
2022/09/07 02:25:11;;;;;;;15.93;14.30;;;18.10;99.90;;;;;;4994170;28;20172;-68
2022/09/07 02:27:50;;;;;;;16.77;15.23;;;18.00;99.90;;;;;;4994019;28;20167;-67
2022/09/07 02:30:16;;;;;;;14.47;13.17;;;18.10;99.90;;;;;;4993783;28;20175;-68
2022/09/07 02:32:42;;;;;;;13.57;12.10;;;18.00;99.90;;;;;;4994167;28;20172;-68
2022/09/07 02:35:08;;;;;;;17.20;12.57;;;18.00;99.90;;;;;;4993761;28;20535;-68
2022/09/07 02:37:35;;;;;;;12.90;11.73;;;18.00;99.90;;;;;;4993386;28;20258;-68
2022/09/07 02:40:01;;;;;;;13.30;12.00;;;18.00;99.90;;;;;;4993375;28;20634;-69
2022/09/07 02:42:30;;;;;;;12.57;11.47;;;18.10;99.90;;;;;;4993479;28;20215;-69
2022/09/07 02:44:56;;;;;;;12.43;11.33;;;18.00;99.90;;;;;;4993555;28;20202;-68
2022/09/07 02:47:56;;;;;;;13.93;12.57;;;18.20;99.90;;;;;;4993515;28;20516;-68
2022/09/07 02:50:35;;;;;;;13.70;12.40;;;18.30;99.90;;;;;;4993238;28;20171;-67
2022/09/07 02:53:10;;;;;;;13.40;12.20;;;18.20;99.90;;;;;;4993441;28;20171;-69
2022/09/07 02:55:44;;;;;;;12.47;11.37;;;18.10;99.90;;;;;;4992316;28;20178;-68
2022/09/07 02:58:39;;;;;;;13.67;12.30;;;18.10;99.90;;;;;;4992952;28;20175;-68
2022/09/07 03:01:23;;;;;;;13.30;12.03;;;18.10;99.90;;;;;;4978197;28;20180;-69
2022/09/07 03:04:06;;;;;;;12.37;11.27;;;18.10;99.90;;;;;;4992107;28;20177;-68
2022/09/07 03:06:38;;;;;;;13.37;11.87;;;18.10;99.90;;;;;;4993071;28;20634;-68
2022/09/07 03:09:12;;;;;;;14.03;12.17;;;18.10;99.90;;;;;;4993260;28;20186;-68
2022/09/07 03:11:38;;;;;;;13.30;12.00;;;18.10;99.90;;;;;;4993283;28;20295;-68
2022/09/07 03:14:11;;;;;;;14.93;12.53;;;18.10;99.90;;;;;;4992872;28;20172;-69
2022/09/07 03:16:37;;;;;;;14.40;12.87;;;18.00;99.90;;;;;;4992996;28;20182;-68
2022/09/07 03:19:03;;;;;;;14.87;13.37;;;18.10;99.90;;;;;;4992893;28;20254;-68
2022/09/07 03:21:30;;;;;;;14.90;13.40;;;18.20;99.90;;;;;;4992455;28;20593;-68
2022/09/07 03:23:56;;;;;;;13.63;12.37;;;18.20;99.90;;;;;;4992890;28;20175;-69
2022/09/07 03:26:26;;;;;;;14.87;13.37;;;18.30;99.90;;;;;;4992904;28;20225;-68
2022/09/07 03:28:52;;;;;;;16.33;14.73;;;18.30;99.90;;;;;;4992741;28;20171;-68
2022/09/07 03:31:19;;;;;;;16.83;14.87;;;18.30;99.90;;;;;;4992681;28;20232;-68
2022/09/07 03:33:44;;;;;;;17.60;15.90;;;18.30;99.90;;;;;;4992477;28;20175;-68
2022/09/07 03:36:10;;;;;;;18.10;16.17;;;18.30;99.90;;;;;;4992816;28;20275;-69
2022/09/07 03:38:35;;;;;;;17.90;16.00;;;18.20;99.90;;;;;;4992586;28;20183;-68
2022/09/07 03:41:03;;;;;;;18.63;16.83;;;18.00;99.90;;;;;;4992622;28;20583;-68
2022/09/07 03:43:29;;;;;;;18.57;16.77;;;18.10;99.90;;;;;;4992584;28;20176;-68
2022/09/07 03:45:57;;;;;;;18.60;16.73;;;18.00;99.90;;;;;;4992315;28;20241;-68
2022/09/07 03:48:23;;;;;;;18.27;16.57;;;18.00;99.90;;;;;;4992014;28;20175;-68
2022/09/07 03:50:56;;;;;;;19.30;17.40;;;17.90;99.90;;;;;;4992634;28;20229;-68
2022/09/07 03:53:22;;;;;;;19.50;17.57;;;17.90;99.90;;;;;;4992180;28;20228;-68
2022/09/07 03:55:59;;;;;;;20.63;18.47;;;17.90;99.90;;;;;;4992244;28;20179;-69
2022/09/07 03:58:24;;;;;;;20.40;18.33;;;18.00;99.90;;;;;;4992131;28;20179;-68
2022/09/07 04:00:50;;;;;;;23.27;20.87;;;18.00;99.90;;;;;;4992316;28;20175;-69
2022/09/07 04:03:16;;;;;;;23.20;20.80;;;18.10;99.90;;;;;;4991726;28;20287;-69
2022/09/07 04:05:41;;;;;;;23.10;20.70;;;18.10;99.90;;;;;;4991571;28;20260;-69
2022/09/07 04:08:07;;;;;;;23.33;21.03;;;18.10;99.90;;;;;;4991851;28;20176;-69
2022/09/07 04:10:37;;;;;;;23.57;21.10;;;18.10;99.90;;;;;;4991992;28;20199;-69
2022/09/07 04:13:03;;;;;;;25.83;21.77;;;18.20;99.90;;;;;;4991396;28;20190;-68
2022/09/07 04:15:28;;;;;;;23.60;21.20;;;18.20;99.90;;;;;;4991421;28;20219;-68
2022/09/07 04:17:54;;;;;;;23.30;20.63;;;18.20;99.90;;;;;;4991611;28;20203;-68
2022/09/07 04:20:20;;;;;;;24.27;21.67;;;18.10;99.90;;;;;;4991612;28;20647;-69
2022/09/07 04:22:49;;;;;;;23.47;21.03;;;18.10;99.90;;;;;;4991789;28;20210;-69
2022/09/07 04:25:15;;;;;;;24.50;21.93;;;18.20;99.90;;;;;;4991483;28;20175;-68
2022/09/07 04:27:41;;;;;;;24.43;21.87;;;18.20;99.90;;;;;;4991211;28;20225;-69
2022/09/07 04:30:07;;;;;;;22.60;20.40;;;18.20;99.90;;;;;;4991425;28;20646;-68
2022/09/07 04:32:33;;;;;;;24.57;22.00;;;18.20;99.90;;;;;;4991090;28;20179;-69
2022/09/07 04:34:58;;;;;;;24.00;21.70;;;18.20;99.90;;;;;;4991829;28;20178;-69
2022/09/07 04:37:24;;;;;;;24.53;22.20;;;18.20;99.90;;;;;;4991740;28;20538;-69
2022/09/07 04:39:50;;;;;;;24.43;21.73;;;18.30;99.90;;;;;;4990871;28;20252;-69
2022/09/07 04:42:16;;;;;;;23.93;21.37;;;18.40;99.90;;;;;;4991377;28;20242;-69
2022/09/07 04:44:42;;;;;;;23.73;21.23;;;18.40;99.90;;;;;;4991046;28;20176;-69
2022/09/07 04:47:08;;;;;;;22.33;20.03;;;18.40;99.90;;;;;;4991209;28;20199;-69
2022/09/07 04:49:33;;;;;;;22.90;20.40;;;18.40;99.90;;;;;;4991435;28;20241;-69
2022/09/07 04:51:59;;;;;;;26.50;20.47;;;18.40;99.90;;;;;;4991006;28;20270;-69
2022/09/07 04:54:25;;;;;;;22.60;19.67;;;18.50;99.90;;;;;;4989623;28;20652;-69
2022/09/07 04:56:51;;;;;;;20.50;18.50;;;18.60;99.90;;;;;;4990881;28;20180;-69
2022/09/07 04:59:16;;;;;;;19.93;17.90;;;18.60;99.90;;;;;;4991056;28;20171;-69
2022/09/07 05:01:42;;;;;;;18.03;16.13;;;18.80;99.90;;;;;;4990453;28;20214;-69
2022/09/07 05:04:08;;;;;;;20.17;16.47;;;18.80;99.90;;;;;;4991053;28;20171;-69
2022/09/07 05:06:34;;;;;;;16.43;14.57;;;18.80;99.90;;;;;;4990984;28;20179;-69
2022/09/07 05:09:00;;;;;;;16.17;14.37;;;18.70;99.90;;;;;;4990776;28;20657;-69
2022/09/07 05:11:26;;;;;;;15.70;14.10;;;18.60;99.90;;;;;;4989943;28;20732;-69
2022/09/07 05:13:53;;;;;;;17.87;14.97;;;18.60;99.90;;;;;;4990169;28;20171;-68
2022/09/07 05:16:22;;;;;;;16.83;15.03;;;18.70;99.90;;;;;;4989961;28;20210;-70
2022/09/07 05:18:53;;;;;;;17.00;15.20;;;18.70;99.90;;;;;;4990254;28;20224;-70
2022/09/07 05:21:21;;;;;;;26.13;16.60;;;18.70;99.90;;;;;;4990153;28;20241;-69
2022/09/07 05:23:51;;;;;;;17.30;15.50;;;18.70;99.90;;;;;;4990125;28;20630;-69
2022/09/07 05:26:19;;;;;;;19.77;16.27;;;18.80;99.90;;;;;;4989426;28;20179;-69
2022/09/07 05:28:46;;;;;;;19.80;16.30;;;18.80;99.90;;;;;;4990111;28;20333;-69
2022/09/07 05:31:22;;;;;;;20.33;16.40;;;18.70;99.90;;;;;;4989722;28;20262;-69
2022/09/07 05:33:52;;;;;;;21.60;17.30;;;18.70;99.90;;;;;;4989827;28;20171;-68
2022/09/07 05:36:19;;;;;;;20.03;17.93;;;18.70;99.90;;;;;;4989699;28;20229;-69
2022/09/07 05:38:46;;;;;;;22.43;18.00;;;18.70;99.90;;;;;;4989837;28;20603;-69
2022/09/07 05:41:20;;;;;;;23.60;18.70;;;18.70;99.90;;;;;;4989291;28;20179;-69
2022/09/07 05:43:47;;;;;;;20.83;18.57;;;18.70;99.90;;;;;;4989942;28;20175;-69
2022/09/07 05:46:13;;;;;;;21.10;18.87;;;18.70;99.90;;;;;;4989521;28;20171;-71
2022/09/07 05:48:39;;;;;;;22.13;18.93;;;18.70;99.90;;;;;;4988210;28;20520;-70
2022/09/07 05:51:06;;;;;;;22.77;20.37;;;18.70;99.90;;;;;;4989755;28;20171;-69
2022/09/07 05:53:36;;;;;;;23.87;19.40;;;18.70;99.90;;;;;;4989728;28;20203;-68
2022/09/07 05:56:03;;;;;;;22.87;19.87;;;18.60;99.90;;;;;;4989047;28;20179;-69
2022/09/07 05:58:29;;;;;;;24.03;20.60;;;18.60;99.90;;;;;;4989400;28;20190;-70
2022/09/07 06:01:05;;;;;;;24.87;20.50;;;18.60;99.90;;;;;;4988087;28;20186;-69
2022/09/07 06:03:31;;;;;;;26.37;20.10;;;18.60;99.90;;;;;;4988829;28;20175;-69
2022/09/07 06:06:04;;;;;;;22.70;19.77;;;18.60;99.90;;;;;;4989273;28;20303;-69
2022/09/07 06:08:31;;;;;;;25.47;20.47;;;18.70;99.90;;;;;;4988953;28;20681;-70
2022/09/07 06:10:56;;;;;;;25.40;20.93;;;18.80;99.90;;;;;;4988253;28;20194;-70
2022/09/07 06:13:22;;;;;;;23.00;20.10;;;19.10;99.90;;;;;;4989211;28;20183;-70
2022/09/07 06:15:48;;;;;;;23.13;19.53;;;19.50;99.90;;;;;;4988814;28;20254;-70
2022/09/07 06:18:13;;;;;;;22.60;19.67;;;19.70;99.90;;;;;;4988093;28;20237;-69
2022/09/07 06:20:39;;;;;;;22.75;18.83;;;19.80;99.90;;;;;;4988447;28;20199;-72
2022/09/07 06:23:06;;;;;;;21.42;17.95;;;20.40;99.90;;;;;;4989006;28;20211;-71
2022/09/07 06:25:32;;;;;;;19.95;16.95;;;21.50;47.80;;;;;;4988470;28;20258;-71
2022/09/07 06:27:58;;;;;;;17.77;15.98;;;22.60;1.90;;;;;;4988355;28;20203;-73
2022/09/07 06:30:24;;;;;;;17.08;15.40;;;24.00;1.00;;;;;;4985264;28;20187;-73
2022/09/07 06:32:50;;;;;;;16.60;14.90;;;25.10;1.00;;;;;;4955567;28;20195;-73
2022/09/07 06:35:16;;;;;;;15.30;13.90;;;25.90;1.00;;;;;;4949634;28;20161;-73
2022/09/07 06:37:42;;;;;;;17.40;15.15;;;27.00;23.40;;;;;;4960218;28;20579;-73
2022/09/07 06:40:09;;;;;;;18.45;16.25;;;27.30;1.00;;;;;;4971892;28;20687;-74
2022/09/07 06:42:34;;;;;;;18.23;15.45;;;28.20;99.90;;;;;;4970745;28;20691;-73
2022/09/07 06:45:00;;;;;;;19.73;15.60;;;27.30;99.90;;;;;;4972142;28;20179;-71
2022/09/07 06:47:26;;;;;;;18.88;15.90;;;26.80;1.00;;;;;;4971857;28;20183;-71
2022/09/07 06:49:51;;;;;;;17.00;14.98;;;26.60;1.00;;;;;;4971828;28;20168;-73
2022/09/07 06:52:17;;;;;;;16.38;14.60;;;27.70;1.00;;;;;;4972449;28;20263;-72
2022/09/07 06:54:42;;;;;;;14.93;13.32;;;28.70;1.00;;;;;;4971765;28;20487;-73
2022/09/07 06:57:08;;;;;;;13.40;12.00;;;29.20;1.00;;;;;;4970646;28;20183;-73
2022/09/07 06:59:34;;;;;;;16.95;12.10;;;29.30;1.00;;;;;;4971191;28;20627;-71
2022/09/07 07:02:01;;;;;;;12.82;10.93;;;29.90;50.90;;;;;;4971307;28;20207;-73
2022/09/07 07:04:26;;;;;;;11.07;9.85;;;29.70;1.00;;;;;;4971095;28;20183;-72
2022/09/07 07:06:52;;;;;;;13.10;11.05;;;29.90;1.00;;;;;;4971617;28;20179;-72
2022/09/07 07:09:17;;;;;;;11.93;10.63;;;29.80;48.80;;;;;;4971001;28;20253;-71
2022/09/07 07:11:46;;;;;;;11.32;10.15;;;30.40;1.00;;;;;;4971289;28;20522;-71
2022/09/07 07:14:15;;;;;;;13.23;9.68;;;29.50;99.90;;;;;;4971759;28;20226;-71
2022/09/07 07:16:41;;;;;;;9.82;8.82;;;29.20;1.00;;;;;;4972150;28;20188;-71
2022/09/07 07:19:07;;;;;;;14.75;9.93;;;29.00;1.00;;;;;;4971102;28;20269;-73
2022/09/07 07:21:32;;;;;;;10.95;9.85;;;29.20;1.00;;;;;;4971836;28;20211;-73
2022/09/07 07:23:58;;;;;;;10.90;9.80;;;29.50;99.90;;;;;;4972350;28;20411;-72
2022/09/07 07:26:25;;;;;;;9.25;8.40;;;29.50;15.00;;;;;;4999658;28;20246;-72
2022/09/07 07:28:53;;;;;;;8.95;8.05;;;29.30;99.90;;;;;;4998018;28;20187;-72
2022/09/07 07:31:23;;;;;;;8.15;6.18;;;29.60;99.90;;;;;;4983317;28;20188;-71
2022/09/07 07:33:51;;;;;;;7.82;6.10;;;30.10;99.90;;;;;;4973726;28;20279;-72
2022/09/07 07:36:21;;;;;;;8.60;6.90;;;29.60;99.90;;;;;;4979160;28;20188;-72
2022/09/07 07:38:48;;;;;;;7.55;6.70;;;29.80;99.90;;;;;;5007600;28;20765;-72
2022/09/07 07:41:16;;;;;;;8.77;6.75;;;29.30;1.00;;;;;;5021102;28;20179;-70
2022/09/07 07:43:41;;;;;;;6.82;6.18;;;29.60;99.90;;;;;;5036371;28;20169;-71
2022/09/07 07:46:12;;;;;;;9.48;5.38;;;30.40;99.90;;;;;;5042198;28;20395;-73
2022/09/07 07:48:38;;;;;;;7.85;4.80;;;31.60;1.00;;;;;;5022652;28;20203;-72
2022/09/07 07:51:06;;;;;;;7.40;5.20;;;32.30;1.00;;;;;;4963286;28;20646;-71
2022/09/07 07:53:33;;;;;;;8.88;4.93;;;32.10;99.90;;;;;;4983850;28;20208;-70
2022/09/07 07:56:00;;;;;;;6.65;4.47;;;31.90;99.90;;;;;;4978825;28;20176;-71
2022/09/07 07:58:29;;;;;;;9.07;5.28;;;31.80;99.90;;;;;;4975195;28;20217;-71
2022/09/07 08:01:00;;;;;;;5.55;4.55;;;32.50;99.90;;;;;;4969162;28;20216;-73
2022/09/07 08:03:26;;;;;;;4.53;4.13;;;32.60;99.90;;;;;;4969866;28;20191;-72
2022/09/07 08:05:53;;;;;;;6.03;5.00;;;32.50;99.90;;;;;;4967464;28;20630;-71
2022/09/07 08:08:20;;;;;;;6.65;4.68;;;32.60;99.90;;;;;;4981940;28;20250;-72
2022/09/07 08:10:46;;;;;;;6.95;4.40;;;33.80;99.90;;;;;;4973863;28;20604;-71
2022/09/07 08:13:13;;;;;;;6.50;3.80;;;34.30;99.90;;;;;;4974486;28;20184;-72
2022/09/07 08:15:43;;;;;;;9.18;4.55;;;34.00;99.90;;;;;;4962538;28;20580;-72
2022/09/07 08:18:13;;;;;;;7.35;3.90;;;34.60;99.90;;;;;;4966311;28;20536;-71
2022/09/07 08:20:39;;;;;;;4.57;3.78;;;34.00;99.90;;;;;;4965554;28;20195;-71
2022/09/07 08:23:06;;;;;;;6.40;3.55;;;34.60;99.90;;;;;;4967681;28;20309;-71
2022/09/07 08:25:33;;;;;;;6.85;4.68;;;34.80;99.90;;;;;;4975487;28;20267;-69
2022/09/07 08:27:59;;;;;;;5.18;2.90;;;35.70;99.90;;;;;;4970945;28;20666;-70
2022/09/07 08:30:24;;;;;;;3.85;2.90;;;35.50;99.90;;;;;;4973418;28;20183;-70
2022/09/07 08:32:50;;;;;;;4.90;3.55;;;35.40;99.90;;;;;;4984267;28;20300;-72
2022/09/07 08:35:16;;;;;;;5.85;3.38;;;35.00;99.90;;;;;;4970291;28;20226;-70
2022/09/07 08:37:42;;;;;;;5.50;3.17;;;33.80;99.90;;;;;;4988315;28;20271;-70
2022/09/07 08:40:19;;;;;;;5.15;3.20;;;32.80;99.90;;;;;;4972851;28;20651;-69
2022/09/07 08:43:03;;;;;;;5.15;2.90;;;32.20;99.90;;;;;;4964182;28;20600;-69
2022/09/07 08:45:40;;;;;;;7.07;2.72;;;30.50;99.90;;;;;;4971917;28;20297;-68
2022/09/07 08:48:07;;;;;;;4.95;2.08;;;29.30;1.00;;;;;;4963488;28;20192;-68
2022/09/07 08:50:51;;;;;;;6.03;3.03;;;29.00;1.00;;;;;;4991630;28;20214;-68
2022/09/07 08:53:19;;;;;;;6.85;2.55;;;28.90;1.00;;;;;;4994685;28;20540;-70
2022/09/07 08:56:03;;;;;;;3.95;2.55;;;28.70;99.90;;;;;;4967610;28;20651;-70
2022/09/07 08:58:46;;;;;;;5.25;3.03;;;29.20;1.00;;;;;;4993883;28;20191;-71
2022/09/07 09:01:21;;;;;;;5.82;2.95;;;29.90;1.00;;;;;;4971918;28;20188;-70
2022/09/07 09:03:47;;;;;;;3.35;2.63;;;30.70;1.00;;;;;;4962333;28;20192;-69
2022/09/07 09:06:33;;;;;;;5.90;3.33;;;31.70;99.90;;;;;;4983060;28;20267;-69
2022/09/07 09:09:24;;;;;;;4.95;3.88;;;31.30;99.90;;;;;;4980180;28;20197;-70
2022/09/07 09:12:26;;;;;;;6.32;4.18;;;30.60;99.90;;;;;;5013857;28;20196;-70
2022/09/07 09:15:25;;;;;;;6.53;4.40;;;29.00;1.00;;;;;;4963778;28;20699;-70
2022/09/07 09:18:09;;;;;;;5.32;4.03;;;28.10;1.00;;;;;;4964441;28;20188;-70
2022/09/07 09:20:53;;;;;;;6.15;4.55;;;27.60;99.90;;;;;;4972736;28;20179;-70
2022/09/07 09:23:25;;;;;;;9.40;4.32;;;28.40;42.90;;;;;;4962534;28;20682;-71
2022/09/07 09:25:54;;;;;;;7.10;3.85;;;29.00;1.00;;;;;;4988325;28;20199;-70
2022/09/07 09:28:20;;;;;;;7.82;4.90;;;29.40;99.90;;;;;;4981915;28;20363;-71
2022/09/07 09:30:49;;;;;;;8.60;4.57;;;29.10;90.20;;;;;;4967579;28;20306;-71
2022/09/07 09:33:23;;;;;;;6.60;3.60;;;29.40;1.00;;;;;;4970211;28;20180;-70
2022/09/07 09:35:51;;;;;;;6.95;3.00;;;29.40;1.00;;;;;;4968136;28;20690;-71
2022/09/07 09:38:31;;;;;;;10.10;2.70;;;29.50;1.00;;;;;;4966809;28;20182;-72
2022/09/07 09:41:16;;;;;;;8.38;3.20;;;29.70;1.00;;;;;;4961653;28;20180;-71
2022/09/07 09:43:50;;;;;;;7.47;2.25;;;29.40;1.00;;;;;;4966268;28;20586;-72
2022/09/07 09:46:26;;;;;;;4.60;2.00;;;29.10;1.00;;;;;;4961114;28;20194;-72
2022/09/07 09:48:59;;;;;;;6.38;1.98;;;28.60;1.00;;;;;;4973022;28;20615;-71
2022/09/07 09:51:28;;;;;;;8.60;2.60;;;28.20;1.00;;;;;;4973099;28;20187;-71
2022/09/07 09:54:15;;;;;;;6.70;2.13;;;28.40;1.00;;;;;;4980475;28;20184;-71
2022/09/07 09:56:46;;;;;;;2.95;1.85;;;28.80;1.00;;;;;;4983676;28;20176;-71
2022/09/07 09:59:17;;;;;;;4.18;2.03;;;28.50;1.00;;;;;;4961990;28;20180;-70
2022/09/07 10:01:45;;;;;;;4.40;2.30;;;28.70;1.00;;;;;;4961554;28;20208;-70
2022/09/07 10:04:24;;;;;;;4.90;2.05;;;28.70;83.90;;;;;;4962834;28;20195;-70
2022/09/07 10:06:56;;;;;;;5.72;2.53;;;29.70;1.00;;;;;;4967842;28;20682;-71
2022/09/07 10:09:34;;;;;;;4.43;2.10;;;29.40;1.00;;;;;;4955540;28;20208;-70
2022/09/07 10:12:02;;;;;;;5.40;2.45;;;27.90;99.90;;;;;;4968381;28;20179;-70
2022/09/07 10:14:29;;;;;;;4.03;2.10;;;27.50;93.10;;;;;;4970494;28;20705;-71
2022/09/07 10:16:57;;;;;;;5.22;2.00;;;27.70;1.00;;;;;;4969950;28;20188;-71
2022/09/07 10:19:25;;;;;;;5.88;2.08;;;27.90;1.00;;;;;;4970316;28;20662;-71
2022/09/07 10:21:56;;;;;;;7.15;1.98;;;28.00;99.90;;;;;;4964702;28;20658;-71
2022/09/07 10:24:30;;;;;;;1.75;1.58;;;28.00;1.00;;;;;;4968462;28;20263;-71
2022/09/07 10:26:56;;;;;;;5.25;1.73;;;28.60;8.50;;;;;;4971115;28;20180;-71
2022/09/07 10:29:34;;;;;;;7.07;2.10;;;29.20;1.00;;;;;;4970946;28;20184;-71
2022/09/07 10:32:24;;;;;;;4.47;2.20;;;29.40;1.00;;;;;;4969379;28;20180;-73
2022/09/07 10:34:52;;;;;;;5.85;2.10;;;29.00;99.90;;;;;;4966432;28;20186;-71
2022/09/07 10:37:39;;;;;;;7.03;2.30;;;29.20;99.90;;;;;;4969721;28;20279;-72
2022/09/07 10:40:14;;;;;;;3.63;2.35;;;28.20;1.00;;;;;;4970622;28;20244;-72
2022/09/07 10:42:52;;;;;;;6.85;2.65;;;28.20;1.00;;;;;;4969713;28;20222;-71
2022/09/07 10:45:22;;;;;;;3.85;2.22;;;28.10;1.00;;;;;;4970505;28;20215;-71
2022/09/07 10:47:54;;;;;;;4.18;2.45;;;27.20;99.90;;;;;;4991470;28;20187;-72
2022/09/07 10:50:41;;;;;;;6.30;2.22;;;26.80;1.00;;;;;;4971719;28;20229;-72
2022/09/07 10:53:10;;;;;;;4.78;2.40;;;26.80;1.00;;;;;;4974515;28;20192;-72
2022/09/07 10:55:40;;;;;;;3.92;2.08;;;26.60;99.90;;;;;;5006037;28;20184;-72
2022/09/07 10:58:29;;;;;;;5.60;2.47;;;27.20;1.00;;;;;;4984012;28;20184;-72
2022/09/07 11:01:12;;;;;;;5.93;2.45;;;27.70;1.00;;;;;;4965467;28;20224;-71
2022/09/07 11:04:28;;;;;;;4.07;1.92;;;28.20;1.00;;;;;;4975551;28;20599;-72
2022/09/07 11:07:25;;;;;;;4.75;1.80;;;28.90;1.00;;;;;;4939938;28;20295;-71
2022/09/07 11:09:59;;;;;;;3.65;2.13;;;28.40;1.00;;;;;;4925218;28;20219;-71
2022/09/07 11:12:34;;;;;;;3.47;1.95;;;27.20;99.90;;;;;;4960204;28;20177;-71
2022/09/07 11:15:03;;;;;;;7.88;2.17;;;26.50;99.90;;;;;;4945518;28;20235;-71
2022/09/07 11:17:29;;;;;;;4.63;2.13;;;26.60;1.00;;;;;;4944960;28;20200;-71
2022/09/07 11:20:07;;;;;;;3.00;1.95;;;26.30;1.00;;;;;;4980674;28;20652;-71
2022/09/07 11:22:40;;;;;;;6.90;2.22;;;26.60;99.90;;;;;;5002803;28;20208;-70
2022/09/07 11:25:27;;;;;;;6.55;2.22;;;27.10;1.00;;;;;;4996595;28;20227;-71
2022/09/07 11:28:19;;;;;;;7.18;2.40;;;27.60;35.70;;;;;;5009207;28;20322;-72
2022/09/07 11:30:58;;;;;;;4.03;1.90;;;27.90;1.00;;;;;;4999932;28;20168;-71
2022/09/07 11:33:41;;;;;;;4.35;2.03;;;28.10;1.00;;;;;;4998894;28;20203;-71
2022/09/07 11:36:16;;;;;;;4.22;2.30;;;28.70;1.00;;;;;;4979651;28;20177;-72
2022/09/07 11:38:53;;;;;;;5.53;2.15;;;29.20;1.00;;;;;;5002734;28;20219;-71
2022/09/07 11:41:23;;;;;;;5.22;2.00;;;28.90;99.90;;;;;;4999063;28;20184;-71
2022/09/07 11:43:56;;;;;;;7.22;2.05;;;28.30;1.00;;;;;;5011224;28;20192;-71
2022/09/07 11:47:03;;;;;;;5.18;1.88;;;28.30;1.00;;;;;;5029218;28;20206;-71
2022/09/07 11:49:29;;;;;;;6.55;2.53;;;28.10;1.00;;;;;;4967083;28;20188;-70
2022/09/07 11:51:59;;;;;;;9.52;2.78;;;27.30;1.00;;;;;;4968022;28;20186;-71
2022/09/07 11:54:50;;;;;;;5.50;1.90;;;27.20;99.90;;;;;;4984007;28;20185;-71
2022/09/07 11:57:42;;;;;;;6.90;2.13;;;27.90;1.00;;;;;;4965796;28;20201;-71
2022/09/07 12:00:29;;;;;;;5.15;2.13;;;28.30;1.00;;;;;;4978145;28;20177;-71
2022/09/07 12:03:23;;;;;;;4.57;2.08;;;28.80;99.90;;;;;;4962123;28;20917;-70
2022/09/07 12:06:10;;;;;;;4.72;2.05;;;28.40;99.90;;;;;;4964682;28;20575;-71
2022/09/07 12:08:52;;;;;;;5.30;2.67;;;27.90;1.00;;;;;;5001836;28;20288;-70
2022/09/07 12:11:39;;;;;;;7.00;2.22;;;28.00;1.00;;;;;;4969870;28;20283;-71
2022/09/07 12:14:38;;;;;;;4.75;1.80;;;28.00;1.00;;;;;;4975918;28;20572;-71
2022/09/07 12:17:36;;;;;;;2.78;1.80;;;28.10;1.00;;;;;;4967047;28;20195;-71
2022/09/07 12:20:13;;;;;;;5.97;1.83;;;27.60;1.00;;;;;;4976473;28;20207;-71
2022/09/07 12:22:58;;;;;;;6.20;1.95;;;26.90;1.00;;;;;;4979805;28;20228;-72
2022/09/07 12:25:24;;;;;;;6.30;1.90;;;26.20;1.00;;;;;;4963396;28;20184;-71
2022/09/07 12:27:51;;;;;;;5.82;2.30;;;26.30;50.70;;;;;;4974556;28;20215;-72
2022/09/07 12:30:20;;;;;;;7.05;2.22;;;26.50;99.90;;;;;;4971193;28;20644;-71
2022/09/07 12:32:52;;;;;;;5.78;2.10;;;26.60;1.00;;;;;;4968578;28;20183;-71
2022/09/07 12:35:27;;;;;;;6.82;2.00;;;26.50;1.00;;;;;;4969366;28;20276;-71
2022/09/07 12:38:23;;;;;;;6.93;2.60;;;26.40;99.90;;;;;;4967555;28;20175;-71
2022/09/07 12:41:02;;;;;;;5.65;2.53;;;27.00;1.00;;;;;;4966399;28;20200;-70
2022/09/07 12:43:33;;;;;;;7.38;2.42;;;26.90;1.00;;;;;;4978370;28;20212;-70
2022/09/07 12:46:00;;;;;;;10.10;2.53;;;26.20;1.00;;;;;;4964420;28;20172;-71
2022/09/07 12:48:31;;;;;;;8.15;2.38;;;26.20;97.50;;;;;;4971398;28;20211;-71
2022/09/07 12:51:32;;;;;;;7.25;2.20;;;26.30;99.90;;;;;;4995653;28;20707;-70
2022/09/07 12:54:04;;;;;;;8.65;2.60;;;26.30;46.40;;;;;;4932540;28;20248;-70
2022/09/07 12:56:35;;;;;;;3.80;2.13;;;26.20;1.00;;;;;;4927961;28;20232;-70
2022/09/07 12:59:07;;;;;;;5.03;2.08;;;26.30;99.90;;;;;;4938998;28;20184;-70
2022/09/07 13:01:52;;;;;;;5.22;2.28;;;26.50;99.90;;;;;;4926598;28;20247;-70
2022/09/07 13:04:35;;;;;;;6.53;2.38;;;26.20;99.90;;;;;;4927439;28;20223;-72